sensor_id;sensor_type;location;lat;lon;timestamp;P1;durP1;ratioP1;P2;durP2;ratioP2
9140;SDS011;46330;50.822;7.126;2024-03-08T00:00:31;22.55;;;11.93;;
9140;SDS011;46330;50.822;7.126;2024-03-08T00:03:01;24.00;;;13.02;;
9140;SDS011;46330;50.822;7.126;2024-03-08T00:05:31;18.83;;;11.63;;
9140;SDS011;46330;50.822;7.126;2024-03-08T00:07:59;20.75;;;12.35;;
9140;SDS011;46330;50.822;7.126;2024-03-08T00:10:27;19.33;;;12.30;;
9140;SDS011;46330;50.822;7.126;2024-03-08T00:12:56;22.38;;;12.40;;
9140;SDS011;46330;50.822;7.126;2024-03-08T00:15:24;26.27;;;13.35;;
9140;SDS011;46330;50.822;7.126;2024-03-08T00:17:52;21.73;;;12.93;;
9140;SDS011;46330;50.822;7.126;2024-03-08T00:20:22;20.85;;;12.63;;
9140;SDS011;46330;50.822;7.126;2024-03-08T00:22:50;23.63;;;12.35;;
9140;SDS011;46330;50.822;7.126;2024-03-08T00:25:17;25.30;;;13.50;;
9140;SDS011;46330;50.822;7.126;2024-03-08T00:27:46;22.85;;;13.18;;
9140;SDS011;46330;50.822;7.126;2024-03-08T00:30:16;21.88;;;12.68;;
9140;SDS011;46330;50.822;7.126;2024-03-08T00:32:44;23.98;;;13.05;;
9140;SDS011;46330;50.822;7.126;2024-03-08T00:35:12;23.92;;;13.70;;
9140;SDS011;46330;50.822;7.126;2024-03-08T00:37:41;23.27;;;12.18;;
9140;SDS011;46330;50.822;7.126;2024-03-08T00:40:10;20.00;;;11.23;;
9140;SDS011;46330;50.822;7.126;2024-03-08T00:42:38;20.45;;;12.40;;
9140;SDS011;46330;50.822;7.126;2024-03-08T00:45:08;22.70;;;12.02;;
9140;SDS011;46330;50.822;7.126;2024-03-08T00:47:37;19.63;;;11.95;;
9140;SDS011;46330;50.822;7.126;2024-03-08T00:50:06;21.90;;;11.57;;
9140;SDS011;46330;50.822;7.126;2024-03-08T00:52:35;22.10;;;11.70;;
9140;SDS011;46330;50.822;7.126;2024-03-08T00:55:04;22.27;;;12.32;;
9140;SDS011;46330;50.822;7.126;2024-03-08T00:57:34;20.88;;;12.23;;
9140;SDS011;46330;50.822;7.126;2024-03-08T01:00:02;25.42;;;12.30;;
9140;SDS011;46330;50.822;7.126;2024-03-08T01:02:32;22.27;;;11.60;;
9140;SDS011;46330;50.822;7.126;2024-03-08T01:05:02;21.40;;;11.50;;
9140;SDS011;46330;50.822;7.126;2024-03-08T01:07:32;23.35;;;11.57;;
9140;SDS011;46330;50.822;7.126;2024-03-08T01:10:00;21.20;;;12.27;;
9140;SDS011;46330;50.822;7.126;2024-03-08T01:12:29;23.13;;;10.98;;
9140;SDS011;46330;50.822;7.126;2024-03-08T01:14:57;18.73;;;11.45;;
9140;SDS011;46330;50.822;7.126;2024-03-08T01:17:25;21.90;;;11.73;;
9140;SDS011;46330;50.822;7.126;2024-03-08T01:19:53;23.42;;;11.57;;
9140;SDS011;46330;50.822;7.126;2024-03-08T01:22:21;21.63;;;12.02;;
9140;SDS011;46330;50.822;7.126;2024-03-08T01:24:50;18.88;;;12.05;;
9140;SDS011;46330;50.822;7.126;2024-03-08T01:27:17;25.58;;;12.82;;
9140;SDS011;46330;50.822;7.126;2024-03-08T01:29:47;19.85;;;11.80;;
9140;SDS011;46330;50.822;7.126;2024-03-08T01:32:15;23.77;;;12.57;;
9140;SDS011;46330;50.822;7.126;2024-03-08T01:34:43;23.27;;;12.77;;
9140;SDS011;46330;50.822;7.126;2024-03-08T01:37:12;25.80;;;12.73;;
9140;SDS011;46330;50.822;7.126;2024-03-08T01:39:41;21.73;;;12.30;;
9140;SDS011;46330;50.822;7.126;2024-03-08T01:42:08;20.83;;;11.70;;
9140;SDS011;46330;50.822;7.126;2024-03-08T01:44:39;19.58;;;12.27;;
9140;SDS011;46330;50.822;7.126;2024-03-08T01:47:08;19.35;;;11.73;;
9140;SDS011;46330;50.822;7.126;2024-03-08T01:49:36;22.58;;;11.75;;
9140;SDS011;46330;50.822;7.126;2024-03-08T01:52:05;24.55;;;12.65;;
9140;SDS011;46330;50.822;7.126;2024-03-08T01:54:33;20.73;;;10.77;;
9140;SDS011;46330;50.822;7.126;2024-03-08T01:57:03;19.90;;;11.18;;
9140;SDS011;46330;50.822;7.126;2024-03-08T01:59:31;21.85;;;12.18;;
9140;SDS011;46330;50.822;7.126;2024-03-08T02:02:00;26.75;;;12.07;;
9140;SDS011;46330;50.822;7.126;2024-03-08T02:04:31;19.58;;;11.35;;
9140;SDS011;46330;50.822;7.126;2024-03-08T02:06:59;22.40;;;11.88;;
9140;SDS011;46330;50.822;7.126;2024-03-08T02:09:27;22.77;;;11.20;;
9140;SDS011;46330;50.822;7.126;2024-03-08T02:11:55;21.10;;;11.85;;
9140;SDS011;46330;50.822;7.126;2024-03-08T02:14:30;24.52;;;13.10;;
9140;SDS011;46330;50.822;7.126;2024-03-08T02:17:00;22.58;;;13.13;;
9140;SDS011;46330;50.822;7.126;2024-03-08T02:19:28;19.63;;;11.25;;
9140;SDS011;46330;50.822;7.126;2024-03-08T02:21:57;24.95;;;12.48;;
9140;SDS011;46330;50.822;7.126;2024-03-08T02:24:26;22.20;;;12.93;;
9140;SDS011;46330;50.822;7.126;2024-03-08T02:26:54;19.48;;;11.00;;
9140;SDS011;46330;50.822;7.126;2024-03-08T02:29:22;22.98;;;12.35;;
9140;SDS011;46330;50.822;7.126;2024-03-08T02:31:51;22.65;;;12.10;;
9140;SDS011;46330;50.822;7.126;2024-03-08T02:34:20;24.52;;;12.73;;
9140;SDS011;46330;50.822;7.126;2024-03-08T02:36:47;19.52;;;11.77;;
9140;SDS011;46330;50.822;7.126;2024-03-08T02:39:17;20.25;;;12.50;;
9140;SDS011;46330;50.822;7.126;2024-03-08T02:41:46;24.20;;;13.25;;
9140;SDS011;46330;50.822;7.126;2024-03-08T02:44:14;26.08;;;11.85;;
9140;SDS011;46330;50.822;7.126;2024-03-08T02:46:42;19.13;;;11.13;;
9140;SDS011;46330;50.822;7.126;2024-03-08T02:49:10;21.05;;;11.13;;
9140;SDS011;46330;50.822;7.126;2024-03-08T02:51:38;21.80;;;12.77;;
9140;SDS011;46330;50.822;7.126;2024-03-08T02:54:07;22.05;;;12.35;;
9140;SDS011;46330;50.822;7.126;2024-03-08T02:56:38;24.30;;;13.75;;
9140;SDS011;46330;50.822;7.126;2024-03-08T02:59:06;21.25;;;12.00;;
9140;SDS011;46330;50.822;7.126;2024-03-08T03:01:35;23.10;;;11.65;;
9140;SDS011;46330;50.822;7.126;2024-03-08T03:04:03;24.20;;;12.45;;
9140;SDS011;46330;50.822;7.126;2024-03-08T03:06:31;23.02;;;12.35;;
9140;SDS011;46330;50.822;7.126;2024-03-08T03:09:00;21.20;;;12.25;;
9140;SDS011;46330;50.822;7.126;2024-03-08T03:11:28;21.42;;;12.35;;
9140;SDS011;46330;50.822;7.126;2024-03-08T03:13:57;24.88;;;12.75;;
9140;SDS011;46330;50.822;7.126;2024-03-08T03:16:25;20.88;;;11.98;;
9140;SDS011;46330;50.822;7.126;2024-03-08T03:18:53;20.90;;;11.82;;
9140;SDS011;46330;50.822;7.126;2024-03-08T03:21:22;26.85;;;11.90;;
9140;SDS011;46330;50.822;7.126;2024-03-08T03:23:50;23.17;;;11.48;;
9140;SDS011;46330;50.822;7.126;2024-03-08T03:26:19;23.55;;;11.70;;
9140;SDS011;46330;50.822;7.126;2024-03-08T03:28:48;22.58;;;11.55;;
9140;SDS011;46330;50.822;7.126;2024-03-08T03:31:17;20.02;;;10.82;;
9140;SDS011;46330;50.822;7.126;2024-03-08T03:33:45;21.88;;;12.30;;
9140;SDS011;46330;50.822;7.126;2024-03-08T03:36:13;21.02;;;12.18;;
9140;SDS011;46330;50.822;7.126;2024-03-08T03:38:43;23.92;;;11.63;;
9140;SDS011;46330;50.822;7.126;2024-03-08T03:41:11;23.40;;;12.30;;
9140;SDS011;46330;50.822;7.126;2024-03-08T03:43:40;21.08;;;12.05;;
9140;SDS011;46330;50.822;7.126;2024-03-08T03:46:08;21.13;;;11.90;;
9140;SDS011;46330;50.822;7.126;2024-03-08T03:48:38;22.63;;;11.77;;
9140;SDS011;46330;50.822;7.126;2024-03-08T03:51:10;19.33;;;11.18;;
9140;SDS011;46330;50.822;7.126;2024-03-08T03:53:38;23.38;;;12.77;;
9140;SDS011;46330;50.822;7.126;2024-03-08T03:56:06;22.88;;;11.40;;
9140;SDS011;46330;50.822;7.126;2024-03-08T03:58:34;21.48;;;12.35;;
9140;SDS011;46330;50.822;7.126;2024-03-08T04:01:04;19.65;;;10.85;;
9140;SDS011;46330;50.822;7.126;2024-03-08T04:03:32;20.33;;;11.50;;
9140;SDS011;46330;50.822;7.126;2024-03-08T04:06:02;22.63;;;12.77;;
9140;SDS011;46330;50.822;7.126;2024-03-08T04:08:31;22.67;;;13.20;;
9140;SDS011;46330;50.822;7.126;2024-03-08T04:11:00;25.55;;;14.25;;
9140;SDS011;46330;50.822;7.126;2024-03-08T04:13:28;24.70;;;13.38;;
9140;SDS011;46330;50.822;7.126;2024-03-08T04:15:56;27.23;;;13.75;;
9140;SDS011;46330;50.822;7.126;2024-03-08T04:18:24;26.17;;;14.00;;
9140;SDS011;46330;50.822;7.126;2024-03-08T04:20:52;23.05;;;13.20;;
9140;SDS011;46330;50.822;7.126;2024-03-08T04:23:22;23.90;;;12.77;;
9140;SDS011;46330;50.822;7.126;2024-03-08T04:25:49;29.55;;;16.55;;
9140;SDS011;46330;50.822;7.126;2024-03-08T04:28:17;24.60;;;13.73;;
9140;SDS011;46330;50.822;7.126;2024-03-08T04:30:45;22.60;;;12.70;;
9140;SDS011;46330;50.822;7.126;2024-03-08T04:33:13;26.50;;;13.77;;
9140;SDS011;46330;50.822;7.126;2024-03-08T04:35:43;24.88;;;12.90;;
9140;SDS011;46330;50.822;7.126;2024-03-08T04:38:12;22.58;;;11.80;;
9140;SDS011;46330;50.822;7.126;2024-03-08T04:40:41;22.95;;;13.00;;
9140;SDS011;46330;50.822;7.126;2024-03-08T04:43:10;22.70;;;12.68;;
9140;SDS011;46330;50.822;7.126;2024-03-08T04:45:38;22.27;;;12.93;;
9140;SDS011;46330;50.822;7.126;2024-03-08T04:48:08;24.92;;;13.32;;
9140;SDS011;46330;50.822;7.126;2024-03-08T04:50:38;24.90;;;12.50;;
9140;SDS011;46330;50.822;7.126;2024-03-08T04:53:06;22.70;;;11.93;;
9140;SDS011;46330;50.822;7.126;2024-03-08T04:55:35;22.20;;;11.68;;
9140;SDS011;46330;50.822;7.126;2024-03-08T04:58:05;25.75;;;13.52;;
9140;SDS011;46330;50.822;7.126;2024-03-08T05:00:33;24.70;;;12.70;;
9140;SDS011;46330;50.822;7.126;2024-03-08T05:03:01;25.02;;;13.57;;
9140;SDS011;46330;50.822;7.126;2024-03-08T05:05:31;25.30;;;13.02;;
9140;SDS011;46330;50.822;7.126;2024-03-08T05:08:00;25.33;;;13.15;;
9140;SDS011;46330;50.822;7.126;2024-03-08T05:10:29;24.90;;;12.93;;
9140;SDS011;46330;50.822;7.126;2024-03-08T05:12:57;26.63;;;13.68;;
9140;SDS011;46330;50.822;7.126;2024-03-08T05:15:26;31.05;;;15.02;;
9140;SDS011;46330;50.822;7.126;2024-03-08T05:17:54;21.88;;;11.88;;
9140;SDS011;46330;50.822;7.126;2024-03-08T05:20:24;22.83;;;12.75;;
9140;SDS011;46330;50.822;7.126;2024-03-08T05:22:52;23.27;;;12.88;;
9140;SDS011;46330;50.822;7.126;2024-03-08T05:25:20;27.00;;;12.65;;
9140;SDS011;46330;50.822;7.126;2024-03-08T05:27:48;24.00;;;12.98;;
9140;SDS011;46330;50.822;7.126;2024-03-08T05:30:16;21.77;;;12.85;;
9140;SDS011;46330;50.822;7.126;2024-03-08T05:32:46;26.70;;;14.00;;
9140;SDS011;46330;50.822;7.126;2024-03-08T05:35:14;28.27;;;13.65;;
9140;SDS011;46330;50.822;7.126;2024-03-08T05:37:43;24.35;;;13.48;;
9140;SDS011;46330;50.822;7.126;2024-03-08T05:40:11;27.02;;;12.85;;
9140;SDS011;46330;50.822;7.126;2024-03-08T05:42:44;22.42;;;12.05;;
9140;SDS011;46330;50.822;7.126;2024-03-08T05:45:12;22.30;;;12.40;;
9140;SDS011;46330;50.822;7.126;2024-03-08T05:47:41;24.42;;;13.70;;
9140;SDS011;46330;50.822;7.126;2024-03-08T05:50:11;24.80;;;12.82;;
9140;SDS011;46330;50.822;7.126;2024-03-08T05:52:39;25.77;;;13.40;;
9140;SDS011;46330;50.822;7.126;2024-03-08T05:55:07;25.58;;;12.82;;
9140;SDS011;46330;50.822;7.126;2024-03-08T05:57:36;22.60;;;13.20;;
9140;SDS011;46330;50.822;7.126;2024-03-08T06:00:07;26.50;;;13.57;;
9140;SDS011;46330;50.822;7.126;2024-03-08T06:02:40;24.85;;;12.63;;
9140;SDS011;46330;50.822;7.126;2024-03-08T06:05:09;25.77;;;13.38;;
9140;SDS011;46330;50.822;7.126;2024-03-08T06:07:38;23.95;;;12.77;;
9140;SDS011;46330;50.822;7.126;2024-03-08T06:10:08;24.08;;;12.63;;
9140;SDS011;46330;50.822;7.126;2024-03-08T06:12:39;24.80;;;12.40;;
9140;SDS011;46330;50.822;7.126;2024-03-08T06:15:08;28.38;;;13.52;;
9140;SDS011;46330;50.822;7.126;2024-03-08T06:17:41;26.55;;;13.55;;
9140;SDS011;46330;50.822;7.126;2024-03-08T06:20:11;27.65;;;14.30;;
9140;SDS011;46330;50.822;7.126;2024-03-08T06:22:40;25.73;;;13.45;;
9140;SDS011;46330;50.822;7.126;2024-03-08T06:25:08;29.27;;;14.23;;
9140;SDS011;46330;50.822;7.126;2024-03-08T06:27:37;29.13;;;13.90;;
9140;SDS011;46330;50.822;7.126;2024-03-08T06:30:06;27.60;;;12.23;;
9140;SDS011;46330;50.822;7.126;2024-03-08T06:32:36;24.55;;;13.57;;
9140;SDS011;46330;50.822;7.126;2024-03-08T06:35:05;28.58;;;13.38;;
9140;SDS011;46330;50.822;7.126;2024-03-08T06:37:36;25.83;;;13.10;;
9140;SDS011;46330;50.822;7.126;2024-03-08T06:40:07;30.85;;;14.05;;
9140;SDS011;46330;50.822;7.126;2024-03-08T06:42:40;29.67;;;15.70;;
9140;SDS011;46330;50.822;7.126;2024-03-08T06:45:09;28.23;;;14.38;;
9140;SDS011;46330;50.822;7.126;2024-03-08T06:47:39;25.60;;;14.25;;
9140;SDS011;46330;50.822;7.126;2024-03-08T06:50:08;28.98;;;14.80;;
9140;SDS011;46330;50.822;7.126;2024-03-08T06:52:39;28.52;;;14.27;;
9140;SDS011;46330;50.822;7.126;2024-03-08T06:55:09;26.90;;;12.88;;
9140;SDS011;46330;50.822;7.126;2024-03-08T06:57:38;26.40;;;14.18;;
9140;SDS011;46330;50.822;7.126;2024-03-08T07:00:07;24.33;;;12.40;;
9140;SDS011;46330;50.822;7.126;2024-03-08T07:02:38;25.38;;;13.25;;
9140;SDS011;46330;50.822;7.126;2024-03-08T07:05:07;21.20;;;11.60;;
9140;SDS011;46330;50.822;7.126;2024-03-08T07:07:38;25.45;;;12.85;;
9140;SDS011;46330;50.822;7.126;2024-03-08T07:10:08;21.33;;;12.10;;
9140;SDS011;46330;50.822;7.126;2024-03-08T07:12:37;23.52;;;13.32;;
9140;SDS011;46330;50.822;7.126;2024-03-08T07:15:06;25.38;;;13.43;;
9140;SDS011;46330;50.822;7.126;2024-03-08T07:17:34;20.58;;;12.45;;
9140;SDS011;46330;50.822;7.126;2024-03-08T07:20:03;22.70;;;13.52;;
9140;SDS011;46330;50.822;7.126;2024-03-08T07:22:38;17.25;;;9.32;;
9140;SDS011;46330;50.822;7.126;2024-03-08T07:25:09;23.05;;;12.20;;
9140;SDS011;46330;50.822;7.126;2024-03-08T07:27:48;19.83;;;10.73;;
9140;SDS011;46330;50.822;7.126;2024-03-08T07:30:18;22.65;;;12.38;;
9140;SDS011;46330;50.822;7.126;2024-03-08T07:33:00;19.50;;;11.90;;
9140;SDS011;46330;50.822;7.126;2024-03-08T07:35:29;19.73;;;10.45;;
9140;SDS011;46330;50.822;7.126;2024-03-08T07:37:58;20.67;;;12.25;;
9140;SDS011;46330;50.822;7.126;2024-03-08T07:40:27;23.85;;;13.02;;
9140;SDS011;46330;50.822;7.126;2024-03-08T07:42:55;20.30;;;12.10;;
9140;SDS011;46330;50.822;7.126;2024-03-08T07:45:23;18.80;;;11.23;;
9140;SDS011;46330;50.822;7.126;2024-03-08T07:47:51;25.77;;;12.20;;
9140;SDS011;46330;50.822;7.126;2024-03-08T07:50:20;21.70;;;12.18;;
9140;SDS011;46330;50.822;7.126;2024-03-08T07:52:49;19.98;;;11.18;;
9140;SDS011;46330;50.822;7.126;2024-03-08T07:55:18;19.13;;;11.95;;
9140;SDS011;46330;50.822;7.126;2024-03-08T07:57:46;23.95;;;13.20;;
9140;SDS011;46330;50.822;7.126;2024-03-08T08:00:15;21.15;;;12.75;;
9140;SDS011;46330;50.822;7.126;2024-03-08T08:02:45;22.55;;;13.30;;
9140;SDS011;46330;50.822;7.126;2024-03-08T08:05:13;18.95;;;11.20;;
9140;SDS011;46330;50.822;7.126;2024-03-08T08:07:43;15.73;;;9.20;;
9140;SDS011;46330;50.822;7.126;2024-03-08T08:10:15;23.58;;;12.40;;
9140;SDS011;46330;50.822;7.126;2024-03-08T08:12:46;20.83;;;11.60;;
9140;SDS011;46330;50.822;7.126;2024-03-08T08:15:14;21.13;;;12.23;;
9140;SDS011;46330;50.822;7.126;2024-03-08T08:17:43;19.40;;;11.68;;
9140;SDS011;46330;50.822;7.126;2024-03-08T08:20:11;22.40;;;12.45;;
9140;SDS011;46330;50.822;7.126;2024-03-08T08:22:40;18.80;;;10.00;;
9140;SDS011;46330;50.822;7.126;2024-03-08T08:25:09;20.35;;;11.95;;
9140;SDS011;46330;50.822;7.126;2024-03-08T08:27:39;21.55;;;11.48;;
9140;SDS011;46330;50.822;7.126;2024-03-08T08:30:11;18.25;;;10.20;;
9140;SDS011;46330;50.822;7.126;2024-03-08T08:32:40;18.92;;;11.57;;
9140;SDS011;46330;50.822;7.126;2024-03-08T08:35:09;19.67;;;10.00;;
9140;SDS011;46330;50.822;7.126;2024-03-08T08:37:39;20.33;;;10.75;;
9140;SDS011;46330;50.822;7.126;2024-03-08T08:40:07;15.07;;;8.82;;
9140;SDS011;46330;50.822;7.126;2024-03-08T08:42:37;18.17;;;11.50;;
9140;SDS011;46330;50.822;7.126;2024-03-08T08:45:05;19.65;;;11.48;;
9140;SDS011;46330;50.822;7.126;2024-03-08T08:47:44;18.20;;;11.27;;
9140;SDS011;46330;50.822;7.126;2024-03-08T08:50:13;20.02;;;11.73;;
9140;SDS011;46330;50.822;7.126;2024-03-08T08:52:42;18.63;;;10.40;;
9140;SDS011;46330;50.822;7.126;2024-03-08T08:55:10;17.58;;;10.15;;
9140;SDS011;46330;50.822;7.126;2024-03-08T08:57:41;21.02;;;10.52;;
9140;SDS011;46330;50.822;7.126;2024-03-08T09:00:09;13.93;;;8.50;;
9140;SDS011;46330;50.822;7.126;2024-03-08T09:02:41;13.50;;;7.88;;
9140;SDS011;46330;50.822;7.126;2024-03-08T09:05:11;15.48;;;10.18;;
9140;SDS011;46330;50.822;7.126;2024-03-08T09:07:43;17.27;;;11.02;;
9140;SDS011;46330;50.822;7.126;2024-03-08T09:10:12;17.58;;;9.85;;
9140;SDS011;46330;50.822;7.126;2024-03-08T09:12:44;16.00;;;9.82;;
9140;SDS011;46330;50.822;7.126;2024-03-08T09:15:12;14.55;;;9.57;;
9140;SDS011;46330;50.822;7.126;2024-03-08T09:17:40;14.95;;;10.38;;
9140;SDS011;46330;50.822;7.126;2024-03-08T09:20:10;17.73;;;10.48;;
9140;SDS011;46330;50.822;7.126;2024-03-08T09:22:43;19.63;;;10.95;;
9140;SDS011;46330;50.822;7.126;2024-03-08T09:25:12;17.05;;;8.23;;
9140;SDS011;46330;50.822;7.126;2024-03-08T09:27:40;17.25;;;10.73;;
9140;SDS011;46330;50.822;7.126;2024-03-08T09:30:08;16.13;;;8.73;;
9140;SDS011;46330;50.822;7.126;2024-03-08T09:32:39;17.30;;;8.20;;
9140;SDS011;46330;50.822;7.126;2024-03-08T09:35:08;10.80;;;6.50;;
9140;SDS011;46330;50.822;7.126;2024-03-08T09:37:38;12.43;;;8.07;;
9140;SDS011;46330;50.822;7.126;2024-03-08T09:40:06;11.10;;;6.90;;
9140;SDS011;46330;50.822;7.126;2024-03-08T09:42:37;14.25;;;8.15;;
9140;SDS011;46330;50.822;7.126;2024-03-08T09:45:05;13.93;;;7.68;;
9140;SDS011;46330;50.822;7.126;2024-03-08T09:47:37;13.63;;;8.50;;
9140;SDS011;46330;50.822;7.126;2024-03-08T09:50:08;15.65;;;9.32;;
9140;SDS011;46330;50.822;7.126;2024-03-08T09:52:40;14.68;;;8.75;;
9140;SDS011;46330;50.822;7.126;2024-03-08T09:55:10;14.15;;;8.65;;
9140;SDS011;46330;50.822;7.126;2024-03-08T09:57:39;10.20;;;6.45;;
9140;SDS011;46330;50.822;7.126;2024-03-08T10:00:09;10.80;;;6.35;;
9140;SDS011;46330;50.822;7.126;2024-03-08T10:02:45;13.13;;;7.22;;
9140;SDS011;46330;50.822;7.126;2024-03-08T10:05:13;20.52;;;10.85;;
9140;SDS011;46330;50.822;7.126;2024-03-08T10:07:42;15.27;;;9.95;;
9140;SDS011;46330;50.822;7.126;2024-03-08T10:10:10;22.40;;;12.15;;
9140;SDS011;46330;50.822;7.126;2024-03-08T10:12:39;14.70;;;9.98;;
9140;SDS011;46330;50.822;7.126;2024-03-08T10:15:07;15.15;;;9.88;;
9140;SDS011;46330;50.822;7.126;2024-03-08T10:17:35;23.33;;;15.52;;
9140;SDS011;46330;50.822;7.126;2024-03-08T10:20:04;19.20;;;11.30;;
9140;SDS011;46330;50.822;7.126;2024-03-08T10:22:43;7.65;;;5.03;;
9140;SDS011;46330;50.822;7.126;2024-03-08T10:25:28;14.50;;;7.88;;
9140;SDS011;46330;50.822;7.126;2024-03-08T10:27:57;12.98;;;8.00;;
9140;SDS011;46330;50.822;7.126;2024-03-08T10:30:24;15.18;;;9.18;;
9140;SDS011;46330;50.822;7.126;2024-03-08T10:32:52;13.80;;;8.68;;
9140;SDS011;46330;50.822;7.126;2024-03-08T10:35:21;10.25;;;6.50;;
9140;SDS011;46330;50.822;7.126;2024-03-08T10:37:51;14.75;;;9.93;;
9140;SDS011;46330;50.822;7.126;2024-03-08T10:40:26;14.15;;;8.13;;
9140;SDS011;46330;50.822;7.126;2024-03-08T10:42:55;14.95;;;7.80;;
9140;SDS011;46330;50.822;7.126;2024-03-08T10:45:34;12.73;;;7.78;;
9140;SDS011;46330;50.822;7.126;2024-03-08T10:48:12;13.40;;;7.82;;
9140;SDS011;46330;50.822;7.126;2024-03-08T10:51:03;14.50;;;8.52;;
9140;SDS011;46330;50.822;7.126;2024-03-08T10:53:35;13.27;;;8.23;;
9140;SDS011;46330;50.822;7.126;2024-03-08T10:56:07;13.10;;;8.40;;
9140;SDS011;46330;50.822;7.126;2024-03-08T10:58:37;12.63;;;7.68;;
9140;SDS011;46330;50.822;7.126;2024-03-08T11:01:05;8.82;;;5.20;;
9140;SDS011;46330;50.822;7.126;2024-03-08T11:03:49;11.55;;;7.03;;
9140;SDS011;46330;50.822;7.126;2024-03-08T11:06:22;11.95;;;7.22;;
9140;SDS011;46330;50.822;7.126;2024-03-08T11:08:58;14.80;;;8.40;;
9140;SDS011;46330;50.822;7.126;2024-03-08T11:11:27;14.13;;;8.98;;
9140;SDS011;46330;50.822;7.126;2024-03-08T11:14:00;12.90;;;7.75;;
9140;SDS011;46330;50.822;7.126;2024-03-08T11:16:37;15.05;;;8.25;;
9140;SDS011;46330;50.822;7.126;2024-03-08T11:19:23;11.32;;;7.20;;
9140;SDS011;46330;50.822;7.126;2024-03-08T11:21:59;11.27;;;7.22;;
9140;SDS011;46330;50.822;7.126;2024-03-08T11:24:29;11.23;;;7.13;;
9140;SDS011;46330;50.822;7.126;2024-03-08T11:27:06;11.57;;;6.90;;
9140;SDS011;46330;50.822;7.126;2024-03-08T11:29:36;14.07;;;7.80;;
9140;SDS011;46330;50.822;7.126;2024-03-08T11:32:10;14.20;;;7.85;;
9140;SDS011;46330;50.822;7.126;2024-03-08T11:34:40;10.05;;;6.70;;
9140;SDS011;46330;50.822;7.126;2024-03-08T11:37:11;13.05;;;7.65;;
9140;SDS011;46330;50.822;7.126;2024-03-08T11:39:47;11.60;;;7.10;;
9140;SDS011;46330;50.822;7.126;2024-03-08T11:42:16;12.17;;;6.77;;
9140;SDS011;46330;50.822;7.126;2024-03-08T11:44:44;9.00;;;6.22;;
9140;SDS011;46330;50.822;7.126;2024-03-08T11:47:14;11.55;;;6.88;;
9140;SDS011;46330;50.822;7.126;2024-03-08T11:49:43;10.70;;;6.97;;
9140;SDS011;46330;50.822;7.126;2024-03-08T11:52:14;11.27;;;6.85;;
9140;SDS011;46330;50.822;7.126;2024-03-08T11:54:48;11.48;;;6.28;;
9140;SDS011;46330;50.822;7.126;2024-03-08T11:57:25;11.15;;;7.43;;
9140;SDS011;46330;50.822;7.126;2024-03-08T11:59:55;11.43;;;8.20;;
9140;SDS011;46330;50.822;7.126;2024-03-08T12:02:24;10.98;;;6.72;;
9140;SDS011;46330;50.822;7.126;2024-03-08T12:04:57;11.63;;;7.70;;
9140;SDS011;46330;50.822;7.126;2024-03-08T12:07:27;12.38;;;7.72;;
9140;SDS011;46330;50.822;7.126;2024-03-08T12:10:16;11.32;;;6.18;;
9140;SDS011;46330;50.822;7.126;2024-03-08T12:12:45;12.02;;;8.43;;
9140;SDS011;46330;50.822;7.126;2024-03-08T12:15:14;10.07;;;7.13;;
9140;SDS011;46330;50.822;7.126;2024-03-08T12:17:45;10.98;;;7.10;;
9140;SDS011;46330;50.822;7.126;2024-03-08T12:20:15;10.05;;;6.50;;
9140;SDS011;46330;50.822;7.126;2024-03-08T12:22:44;12.27;;;7.97;;
9140;SDS011;46330;50.822;7.126;2024-03-08T12:25:13;11.70;;;6.90;;
9140;SDS011;46330;50.822;7.126;2024-03-08T12:27:44;11.55;;;7.72;;
9140;SDS011;46330;50.822;7.126;2024-03-08T12:30:16;14.52;;;8.63;;
9140;SDS011;46330;50.822;7.126;2024-03-08T12:32:47;13.40;;;8.77;;
9140;SDS011;46330;50.822;7.126;2024-03-08T12:35:18;12.18;;;7.68;;
9140;SDS011;46330;50.822;7.126;2024-03-08T12:37:49;8.60;;;5.68;;
9140;SDS011;46330;50.822;7.126;2024-03-08T12:40:18;9.63;;;7.03;;
9140;SDS011;46330;50.822;7.126;2024-03-08T12:42:49;13.70;;;8.02;;
9140;SDS011;46330;50.822;7.126;2024-03-08T12:45:17;10.63;;;6.53;;
9140;SDS011;46330;50.822;7.126;2024-03-08T12:47:45;10.55;;;6.07;;
9140;SDS011;46330;50.822;7.126;2024-03-08T12:50:14;10.77;;;7.00;;
9140;SDS011;46330;50.822;7.126;2024-03-08T12:52:43;7.45;;;4.63;;
9140;SDS011;46330;50.822;7.126;2024-03-08T12:55:12;10.27;;;6.68;;
9140;SDS011;46330;50.822;7.126;2024-03-08T12:57:40;12.80;;;6.57;;
9140;SDS011;46330;50.822;7.126;2024-03-08T13:00:10;8.90;;;5.32;;
9140;SDS011;46330;50.822;7.126;2024-03-08T13:02:45;13.43;;;7.90;;
9140;SDS011;46330;50.822;7.126;2024-03-08T13:05:13;10.50;;;7.22;;
9140;SDS011;46330;50.822;7.126;2024-03-08T13:07:41;10.10;;;6.10;;
9140;SDS011;46330;50.822;7.126;2024-03-08T13:10:13;13.20;;;7.18;;
9140;SDS011;46330;50.822;7.126;2024-03-08T13:12:42;10.20;;;7.10;;
9140;SDS011;46330;50.822;7.126;2024-03-08T13:15:11;14.13;;;8.48;;
9140;SDS011;46330;50.822;7.126;2024-03-08T13:17:42;11.27;;;6.80;;
9140;SDS011;46330;50.822;7.126;2024-03-08T13:20:13;10.73;;;5.80;;
9140;SDS011;46330;50.822;7.126;2024-03-08T13:22:56;11.05;;;6.15;;
9140;SDS011;46330;50.822;7.126;2024-03-08T13:25:28;9.43;;;5.32;;
9140;SDS011;46330;50.822;7.126;2024-03-08T13:27:56;8.85;;;5.70;;
9140;SDS011;46330;50.822;7.126;2024-03-08T13:30:27;9.77;;;5.80;;
9140;SDS011;46330;50.822;7.126;2024-03-08T13:32:57;9.95;;;5.70;;
9140;SDS011;46330;50.822;7.126;2024-03-08T13:35:25;9.50;;;6.35;;
9140;SDS011;46330;50.822;7.126;2024-03-08T13:37:54;9.60;;;5.97;;
9140;SDS011;46330;50.822;7.126;2024-03-08T13:40:22;9.80;;;6.03;;
9140;SDS011;46330;50.822;7.126;2024-03-08T13:42:51;6.22;;;3.80;;
9140;SDS011;46330;50.822;7.126;2024-03-08T13:45:19;10.10;;;6.75;;
9140;SDS011;46330;50.822;7.126;2024-03-08T13:47:52;11.95;;;6.55;;
9140;SDS011;46330;50.822;7.126;2024-03-08T13:50:21;9.60;;;6.22;;
9140;SDS011;46330;50.822;7.126;2024-03-08T13:52:50;13.32;;;6.35;;
9140;SDS011;46330;50.822;7.126;2024-03-08T13:55:21;9.63;;;5.43;;
9140;SDS011;46330;50.822;7.126;2024-03-08T13:57:52;10.75;;;6.15;;
9140;SDS011;46330;50.822;7.126;2024-03-08T14:00:20;10.25;;;5.82;;
9140;SDS011;46330;50.822;7.126;2024-03-08T14:02:53;10.10;;;5.65;;
9140;SDS011;46330;50.822;7.126;2024-03-08T14:05:21;12.77;;;5.10;;
9140;SDS011;46330;50.822;7.126;2024-03-08T14:07:49;8.57;;;5.22;;
9140;SDS011;46330;50.822;7.126;2024-03-08T14:10:21;8.10;;;5.25;;
9140;SDS011;46330;50.822;7.126;2024-03-08T14:12:50;9.55;;;6.18;;
9140;SDS011;46330;50.822;7.126;2024-03-08T14:15:18;9.95;;;5.40;;
9140;SDS011;46330;50.822;7.126;2024-03-08T14:17:53;8.90;;;5.38;;
9140;SDS011;46330;50.822;7.126;2024-03-08T14:20:22;10.60;;;5.65;;
9140;SDS011;46330;50.822;7.126;2024-03-08T14:22:52;10.70;;;5.85;;
9140;SDS011;46330;50.822;7.126;2024-03-08T14:25:21;8.70;;;4.90;;
9140;SDS011;46330;50.822;7.126;2024-03-08T14:27:50;8.40;;;4.60;;
9140;SDS011;46330;50.822;7.126;2024-03-08T14:30:20;11.38;;;6.82;;
9140;SDS011;46330;50.822;7.126;2024-03-08T14:33:03;13.02;;;6.38;;
9140;SDS011;46330;50.822;7.126;2024-03-08T14:35:35;10.18;;;6.03;;
9140;SDS011;46330;50.822;7.126;2024-03-08T14:38:04;10.05;;;6.40;;
9140;SDS011;46330;50.822;7.126;2024-03-08T14:40:35;9.20;;;5.43;;
9140;SDS011;46330;50.822;7.126;2024-03-08T14:43:04;9.07;;;5.88;;
9140;SDS011;46330;50.822;7.126;2024-03-08T14:45:32;11.60;;;6.00;;
9140;SDS011;46330;50.822;7.126;2024-03-08T14:48:01;10.70;;;5.55;;
9140;SDS011;46330;50.822;7.126;2024-03-08T14:50:32;11.38;;;6.20;;
9140;SDS011;46330;50.822;7.126;2024-03-08T14:53:03;10.60;;;6.15;;
9140;SDS011;46330;50.822;7.126;2024-03-08T14:55:33;8.23;;;4.93;;